Time;durP1;ratioP1;P1;durP2;ratioP2;P2;SDS_P1;SDS_P2;PMS_P1;PMS_P2;Temp;Humidity;BMP_temperature;BMP_pressure;BME280_temperature;BME280_humidity;BME280_pressure;Samples;Min_cycle;Max_cycle;Signal;HPM_P1;HPM_P2
2020/12/11 00:00:06;;;;;;;11.97;7.83;;;;;;;3.65;89.47;99259.44;648197;221;26966;-73
2020/12/11 00:02:36;;;;;;;10.00;8.60;;;;;;;3.68;88.51;99253.60;636448;225;24650;-73
2020/12/11 00:05:04;;;;;;;10.60;8.83;;;;;;;3.77;87.97;99245.12;636578;225;24843;-75
2020/12/11 00:07:34;;;;;;;10.30;7.47;;;;;;;3.38;89.33;99245.78;648762;217;24889;-73
2020/12/11 00:10:03;;;;;;;9.83;7.60;;;;;;;3.75;88.48;99237.19;639203;222;43690;-75
2020/12/11 00:12:30;;;;;;;10.90;8.58;;;;;;;3.78;88.55;99230.50;631262;222;32666;-73
2020/12/11 00:14:59;;;;;;;9.73;8.33;;;;;;;3.58;88.80;99224.44;637837;222;23696;-75
2020/12/11 00:17:28;;;;;;;10.60;7.77;;;;;;;3.31;89.20;99219.77;637151;225;26966;-75
2020/12/11 00:19:55;;;;;;;9.57;7.90;;;;;;;3.31;89.49;99221.53;646915;222;24784;-74
2020/12/11 00:22:23;;;;;;;10.70;7.87;;;;;;;3.14;89.15;99216.00;636985;224;24818;-75
2020/12/11 00:24:51;;;;;;;9.20;8.20;;;;;;;3.05;89.31;99215.91;636611;225;24881;-75
2020/12/11 00:27:18;;;;;;;10.20;7.80;;;;;;;2.95;89.32;99213.23;638105;224;24827;-75
2020/12/11 00:29:46;;;;;;;12.00;8.07;;;;;;;2.86;89.41;99210.95;648721;221;24781;-75
2020/12/11 00:32:14;;;;;;;10.77;8.50;;;;;;;2.85;89.63;99211.89;636269;225;24860;-75
2020/12/11 00:34:44;;;;;;;17.00;8.10;;;;;;;2.83;89.83;99200.93;636340;221;24834;-75
2020/12/11 00:37:12;;;;;;;9.70;7.90;;;;;;;2.89;89.03;99184.21;630190;225;24884;-74
2020/12/11 00:39:40;;;;;;;12.63;9.45;;;;;;;3.15;88.27;99161.58;631709;223;32762;-74
2020/12/11 00:42:08;;;;;;;11.57;8.43;;;;;;;2.76;89.26;99164.30;637867;224;23696;-74
2020/12/11 00:44:36;;;;;;;12.60;9.13;;;;;;;2.80;89.55;99161.35;636982;223;25089;-75
2020/12/11 00:47:04;;;;;;;9.10;7.90;;;;;;;2.73;89.26;99147.86;641650;220;24821;-75
2020/12/11 00:49:32;;;;;;;11.40;8.90;;;;;;;2.47;89.62;99158.89;647338;220;24801;-75
2020/12/11 00:52:00;;;;;;;10.70;8.23;;;;;;;2.37;90.59;99166.48;644605;221;24829;-75
2020/12/11 00:54:28;;;;;;;12.50;8.90;;;;;;;2.28;90.82;99173.16;643144;221;24828;-75
2020/12/11 00:56:55;;;;;;;9.97;7.67;;;;;;;2.18;90.97;99174.78;644033;221;25064;-75
2020/12/11 00:59:23;;;;;;;9.03;7.40;;;;;;;2.13;91.44;99169.20;645643;221;24786;-75
2020/12/11 01:01:51;;;;;;;9.73;7.30;;;;;;;2.04;92.01;99175.84;636977;225;24812;-75
2020/12/11 01:04:19;;;;;;;10.23;7.33;;;;;;;2.00;92.25;99178.30;636633;225;27048;-75
2020/12/11 01:06:47;;;;;;;9.77;7.90;;;;;;;2.14;92.30;99175.15;648830;221;24772;-74
2020/12/11 01:09:15;;;;;;;10.30;7.53;;;;;;;2.15;92.55;99165.23;635498;225;24844;-75
2020/12/11 01:11:42;;;;;;;10.47;7.20;;;;;;;2.07;92.09;99155.55;636425;225;24862;-75
2020/12/11 01:14:10;;;;;;;9.23;6.70;;;;;;;2.01;92.58;99155.56;647836;221;24784;-75
2020/12/11 01:16:38;;;;;;;8.97;7.33;;;;;;;2.27;91.60;99152.28;648773;221;24784;-75
2020/12/11 01:19:06;;;;;;;9.90;7.50;;;;;;;2.22;91.25;99166.38;636655;225;24939;-75
2020/12/11 01:21:34;;;;;;;8.00;6.53;;;;;;;2.15;91.14;99154.52;644206;221;24829;-75
2020/12/11 01:24:02;;;;;;;9.90;7.20;;;;;;;2.06;91.01;99146.23;643318;222;28059;-71
2020/12/11 01:26:30;;;;;;;11.87;8.00;;;;;;;2.23;89.95;99138.52;648443;221;25063;-73
2020/12/11 01:28:58;;;;;;;7.47;6.60;;;;;;;1.89;90.34;99137.73;642895;221;25331;-73
2020/12/11 01:31:26;;;;;;;9.90;7.53;;;;;;;1.65;91.32;99137.84;647712;221;24847;-73
2020/12/11 01:33:54;;;;;;;7.23;6.43;;;;;;;1.63;91.81;99142.27;637042;225;24842;-73
2020/12/11 01:36:25;;;;;;;8.60;6.53;;;;;;;1.62;92.05;99131.20;641320;221;24855;-73
2020/12/11 01:38:53;;;;;;;10.50;7.87;;;;;;;1.63;92.33;99136.67;647051;221;24820;-73
2020/12/11 01:41:21;;;;;;;8.90;6.97;;;;;;;1.65;92.63;99136.09;639104;222;24810;-73
2020/12/11 01:43:49;;;;;;;9.70;7.03;;;;;;;1.61;92.37;99133.41;640391;221;24874;-73
2020/12/11 01:46:17;;;;;;;9.60;7.07;;;;;;;1.34;92.94;99126.03;641188;221;24831;-73
2020/12/11 01:48:45;;;;;;;12.40;7.20;;;;;;;1.35;93.65;99119.98;643228;221;31346;-73
2020/12/11 01:51:13;;;;;;;10.50;7.70;;;;;;;1.47;93.48;99112.67;645240;220;24834;-73
2020/12/11 01:53:42;;;;;;;7.03;6.33;;;;;;;1.41;93.22;99112.33;640236;218;24803;-73
2020/12/11 01:56:11;;;;;;;6.97;6.27;;;;;;;1.29;94.10;99114.52;640985;220;24847;-73
2020/12/11 01:58:39;;;;;;;9.60;8.20;;;;;;;1.49;94.30;99113.83;648665;220;24832;-73
2020/12/11 02:01:07;;;;;;;9.00;7.47;;;;;;;1.63;93.30;99108.48;642560;220;27998;-73
2020/12/11 02:03:34;;;;;;;11.03;7.90;;;;;;;1.55;93.54;99112.11;647977;220;24814;-73
2020/12/11 02:06:02;;;;;;;9.73;8.38;;;;;;;2.09;91.60;99094.70;637337;220;32740;-72
2020/12/11 02:08:30;;;;;;;9.77;8.10;;;;;;;1.78;92.03;99089.84;650771;218;23757;-72
2020/12/11 02:10:58;;;;;;;10.67;8.27;;;;;;;2.25;90.71;99075.92;640916;221;32699;-73
2020/12/11 02:13:26;;;;;;;8.60;7.70;;;;;;;2.34;89.96;99063.64;633652;221;32717;-73
2020/12/11 02:15:54;;;;;;;8.68;7.78;;;;;;;2.42;89.17;99056.63;637796;221;32693;-73
2020/12/11 02:18:22;;;;;;;9.27;7.20;;;;;;;1.89;90.62;99065.96;645699;221;26847;-73
2020/12/11 02:20:53;;;;;;;7.40;6.43;;;;;;;1.76;91.15;99054.55;643511;221;30281;-72
2020/12/11 02:23:21;;;;;;;8.47;6.93;;;;;;;1.55;91.80;99058.31;638133;221;24805;-72
2020/12/11 02:25:49;;;;;;;9.20;6.60;;;;;;;1.41;92.59;99058.54;642359;221;24807;-72
2020/12/11 02:28:17;;;;;;;8.33;6.80;;;;;;;1.44;92.87;99069.83;640260;222;24814;-73
2020/12/11 02:30:44;;;;;;;8.93;6.67;;;;;;;1.59;92.62;99060.98;647336;221;24853;-73
2020/12/11 02:33:12;;;;;;;7.07;6.00;;;;;;;1.49;92.48;99057.48;648538;221;24784;-73
2020/12/11 02:35:42;;;;;;;8.70;7.30;;;;;;;1.50;93.10;99066.79;639631;224;24879;-73
2020/12/11 02:38:10;;;;;;;7.60;6.80;;;;;;;1.49;93.10;99074.13;636171;225;27000;-73
2020/12/11 02:40:39;;;;;;;12.03;8.20;;;;;;;1.58;93.01;99077.28;636364;226;24846;-73
2020/12/11 02:43:07;;;;;;;11.40;8.23;;;;;;;1.73;92.00;99067.14;636098;226;24861;-73
2020/12/11 02:45:35;;;;;;;10.43;8.00;;;;;;;1.73;91.94;99067.14;636395;224;24820;-73
2020/12/11 02:48:03;;;;;;;9.50;7.67;;;;;;;1.30;93.35;99069.58;636255;225;24831;-73
2020/12/11 02:50:31;;;;;;;9.33;7.87;;;;;;;1.21;94.36;99068.16;636131;225;24865;-73
2020/12/11 02:52:59;;;;;;;10.07;7.20;;;;;;;1.31;93.98;99062.25;648608;221;24782;-73
2020/12/11 02:55:27;;;;;;;8.70;7.13;;;;;;;1.22;94.72;99059.08;648465;222;24778;-73
2020/12/11 02:57:55;;;;;;;9.33;7.57;;;;;;;1.30;93.86;99045.72;648777;217;24783;-71
2020/12/11 03:00:22;;;;;;;8.10;6.90;;;;;;;1.19;94.49;99039.65;644429;222;24809;-72
2020/12/11 03:02:50;;;;;;;8.97;7.17;;;;;;;1.28;94.20;99032.22;641933;221;24813;-73
2020/12/11 03:05:18;;;;;;;8.83;6.93;;;;;;;1.25;93.64;99022.19;644219;222;24811;-73
2020/12/11 03:07:46;;;;;;;7.67;6.87;;;;;;;1.41;93.62;99016.28;646116;218;24804;-72
2020/12/11 03:10:14;;;;;;;8.47;6.77;;;;;;;1.32;93.84;99010.09;645711;220;29274;-73
2020/12/11 03:12:42;;;;;;;7.87;6.60;;;;;;;1.23;93.31;99001.81;647169;221;25465;-73
2020/12/11 03:15:10;;;;;;;8.70;7.07;;;;;;;1.18;93.24;98999.61;649147;220;24874;-73
2020/12/11 03:17:38;;;;;;;8.60;6.87;;;;;;;1.13;93.62;98991.94;645556;221;24818;-73
2020/12/11 03:20:06;;;;;;;8.27;6.30;;;;;;;1.11;93.53;98991.22;645209;220;25091;-73
2020/12/11 03:22:35;;;;;;;9.15;7.83;;;;;;;1.71;92.61;98987.01;638303;222;32741;-72
2020/12/11 03:25:01;;;;;;;9.33;8.33;;;;;;;2.01;90.68;98970.16;634491;221;43624;-75
2020/12/11 03:27:29;;;;;;;8.77;7.50;;;;;;;1.41;92.02;98967.14;646193;221;26906;-74
2020/12/11 03:29:57;;;;;;;9.90;8.03;;;;;;;1.20;92.71;98967.48;643502;222;24877;-75
2020/12/11 03:32:25;;;;;;;10.90;7.27;;;;;;;0.99;93.40;98964.82;642588;222;24811;-74
2020/12/11 03:34:53;;;;;;;10.20;7.57;;;;;;;1.00;94.78;98969.02;644073;221;24822;-75
2020/12/11 03:37:21;;;;;;;9.23;6.83;;;;;;;1.05;94.28;98960.97;647377;221;24898;-75
2020/12/11 03:39:48;;;;;;;8.80;7.80;;;;;;;1.68;92.51;98950.53;636679;222;43692;-75
2020/12/11 03:42:16;;;;;;;8.97;7.60;;;;;;;1.36;93.21;98947.92;642269;221;23710;-75
2020/12/11 03:44:44;;;;;;;10.47;7.67;;;;;;;1.29;93.21;98944.22;639144;221;24809;-75
2020/12/11 03:47:12;;;;;;;8.47;6.93;;;;;;;1.31;93.75;98950.84;639327;221;28067;-75
2020/12/11 03:49:40;;;;;;;10.00;7.60;;;;;;;1.28;94.05;98945.16;642101;222;24823;-75
2020/12/11 03:52:08;;;;;;;8.77;7.30;;;;;;;1.29;93.74;98941.66;644343;221;27992;-75
2020/12/11 03:54:36;;;;;;;7.87;6.80;;;;;;;1.30;93.48;98942.00;642421;222;24894;-74
2020/12/11 03:57:03;;;;;;;10.67;7.17;;;;;;;1.30;93.81;98945.84;649076;221;26995;-74
2020/12/11 03:59:32;;;;;;;8.27;6.23;;;;;;;1.25;93.62;98935.13;642506;221;24848;-75
2020/12/11 04:02:00;;;;;;;8.40;6.50;;;;;;;1.23;93.97;98930.59;645860;221;24823;-75
2020/12/11 04:04:28;;;;;;;6.43;5.70;;;;;;;1.09;94.13;98924.77;642157;220;24803;-74
2020/12/11 04:06:56;;;;;;;7.03;5.83;;;;;;;0.92;94.06;98918.04;642871;222;25011;-73
2020/12/11 04:09:24;;;;;;;8.23;6.40;;;;;;;0.73;94.81;98919.90;643555;221;24843;-73
2020/12/11 04:11:52;;;;;;;8.77;7.03;;;;;;;0.71;95.30;98918.73;646181;221;24852;-72
2020/12/11 04:14:19;;;;;;;9.75;7.65;;;;;;;1.21;94.70;98923.03;639320;221;32697;-73
2020/12/11 04:16:50;;;;;;;9.67;8.17;;;;;;;0.96;95.05;98913.84;643443;222;23672;-73
2020/12/11 04:19:18;;;;;;;12.83;7.70;;;;;;;1.03;94.97;98921.42;645317;219;24880;-73
2020/12/11 04:21:49;;;;;;;10.77;7.80;;;;;;;0.84;94.93;98914.77;642987;220;28003;-73
2020/12/11 04:24:17;;;;;;;11.07;7.80;;;;;;;0.77;95.38;98912.33;646159;220;24810;-73
2020/12/11 04:26:45;;;;;;;10.90;8.68;;;;;;;1.32;94.27;98907.66;639098;221;32733;-73
2020/12/11 04:29:13;;;;;;;10.57;7.80;;;;;;;0.89;94.95;98893.03;645300;221;23755;-73
2020/12/11 04:31:41;;;;;;;8.80;7.57;;;;;;;0.75;95.24;98897.56;639745;221;24805;-75
2020/12/11 04:34:09;;;;;;;9.13;7.30;;;;;;;0.57;95.87;98903.14;642843;221;26100;-73
2020/12/11 04:36:36;;;;;;;9.20;7.53;;;;;;;0.53;95.98;98906.84;646085;221;30163;-75
2020/12/11 04:39:04;;;;;;;10.97;8.20;;;;;;;0.48;96.33;98908.93;647304;222;24901;-74
2020/12/11 04:41:32;;;;;;;9.17;7.80;;;;;;;0.38;97.00;98912.27;642582;221;26970;-75
2020/12/11 04:44:00;;;;;;;8.70;7.00;;;;;;;0.48;96.73;98904.28;645571;222;24828;-75
2020/12/11 04:46:28;;;;;;;10.00;7.73;;;;;;;0.40;96.52;98892.05;645236;222;28034;-75
2020/12/11 04:48:56;;;;;;;9.20;7.40;;;;;;;0.24;96.42;98890.28;630153;222;24872;-75
2020/12/11 04:51:25;;;;;;;11.40;7.90;;;;;;;0.22;97.13;98884.47;644779;221;24818;-74
2020/12/11 04:53:54;;;;;;;8.90;7.40;;;;;;;0.28;95.92;98875.05;645213;221;24848;-74
2020/12/11 04:56:22;;;;;;;10.58;8.78;;;;;;;0.77;93.86;98857.33;638100;221;32713;-74
2020/12/11 04:58:51;;;;;;;15.40;7.83;;;;;;;0.09;95.32;98858.17;645919;221;23687;-74
2020/12/11 05:01:26;;;;;;;10.33;7.60;;;;;;;-0.06;96.99;98869.05;643957;221;24807;-74
2020/12/11 05:03:55;;;;;;;9.27;7.33;;;;;;;0.30;96.01;98857.88;644495;221;24829;-75
2020/12/11 05:06:23;;;;;;;9.47;7.40;;;;;;;0.25;96.19;98851.81;642448;222;24844;-74
2020/12/11 05:08:50;;;;;;;12.30;7.70;;;;;;;0.17;96.70;98852.05;647913;221;24820;-75
2020/12/11 05:11:27;;;;;;;10.20;8.03;;;;;;;0.11;97.13;98842.27;646498;221;24827;-74
2020/12/11 05:13:55;;;;;;;9.87;7.37;;;;;;;0.21;96.66;98839.38;643884;221;24916;-74
2020/12/11 05:16:23;;;;;;;12.75;9.20;;;;;;;0.28;96.18;98834.15;641233;222;32728;-75
2020/12/11 05:19:02;;;;;;;11.43;8.27;;;;;;;-0.08;97.58;98828.75;639117;222;24724;-74
2020/12/11 05:21:30;;;;;;;9.10;7.57;;;;;;;-0.34;98.49;98828.90;638448;221;24826;-75
2020/12/11 05:24:00;;;;;;;9.37;7.60;;;;;;;-0.23;98.70;98839.62;644326;219;26178;-73
2020/12/11 05:26:28;;;;;;;7.50;6.20;;;;;;;-0.23;99.24;98841.37;641713;221;25918;-75
2020/12/11 05:28:56;;;;;;;10.10;7.10;;;;;;;-0.29;99.63;98841.33;643625;221;24839;-74
2020/12/11 05:31:24;;;;;;;10.23;8.38;;;;;;;0.35;98.06;98835.34;641325;220;33081;-74
2020/12/11 05:34:01;;;;;;;11.55;9.38;;;;;;;0.68;97.01;98834.98;638860;220;43431;-76
2020/12/11 05:36:30;;;;;;;11.80;8.70;;;;;;;0.20;97.55;98837.76;642399;222;23662;-76
2020/12/11 05:38:57;;;;;;;10.20;7.27;;;;;;;0.10;97.80;98827.86;649500;217;24781;-75
2020/12/11 05:41:32;;;;;;;9.40;7.70;;;;;;;-0.18;98.53;98826.51;636995;226;24838;-75
2020/12/11 05:44:00;;;;;;;9.50;7.80;;;;;;;-0.14;99.20;98814.70;637468;224;24904;-76
2020/12/11 05:46:30;;;;;;;10.58;8.80;;;;;;;0.40;97.70;98807.66;631266;225;32719;-76
2020/12/11 05:48:59;;;;;;;10.00;8.30;;;;;;;0.10;97.95;98796.72;642918;221;23692;-75
2020/12/11 05:51:26;;;;;;;11.78;9.08;;;;;;;0.70;96.46;98790.91;638522;221;32726;-75
2020/12/11 05:53:54;;;;;;;10.80;8.20;;;;;;;0.29;97.35;98782.94;643246;221;23691;-75
2020/12/11 05:56:22;;;;;;;9.97;7.77;;;;;;;0.24;97.93;98786.74;645685;222;24816;-76
2020/12/11 05:58:51;;;;;;;13.15;10.85;;;;;;;0.80;96.99;98786.25;640978;222;32727;-73
2020/12/11 06:01:19;;;;;;;13.00;11.20;;;;;;;0.99;95.58;98781.81;639957;220;33062;-75
2020/12/11 06:03:47;;;;;;;10.60;9.47;;;;;;;0.43;96.71;98787.47;637101;225;23725;-76
2020/12/11 06:06:16;;;;;;;13.38;10.72;;;;;;;0.95;95.33;98777.84;643484;221;32658;-76
2020/12/11 06:08:44;;;;;;;11.73;9.97;;;;;;;0.50;96.40;98763.85;636461;224;23683;-74
2020/12/11 06:11:17;;;;;;;12.60;10.15;;;;;;;0.58;95.11;98756.42;644860;221;32521;-74
2020/12/11 06:13:49;;;;;;;12.40;8.90;;;;;;;0.38;96.15;98761.41;647833;221;23773;-74
2020/12/11 06:16:17;;;;;;;12.53;10.50;;;;;;;0.86;95.19;98756.84;643779;221;32623;-74
2020/12/11 06:18:45;;;;;;;11.67;10.03;;;;;;;0.41;96.82;98747.92;648905;220;23658;-74
2020/12/11 06:21:13;;;;;;;12.50;9.90;;;;;;;0.41;98.02;98765.01;649538;221;24801;-74
2020/12/11 06:23:41;;;;;;;13.32;10.80;;;;;;;1.05;96.80;98765.16;631876;224;32734;-74
2020/12/11 06:26:09;;;;;;;12.63;9.50;;;;;;;0.52;97.61;98748.39;648577;221;23680;-74
2020/12/11 06:28:39;;;;;;;10.30;9.13;;;;;;;0.50;98.13;98761.30;636848;225;24806;-73
2020/12/11 06:31:07;;;;;;;13.60;9.20;;;;;;;0.58;98.00;98762.00;636082;224;24841;-74
2020/12/11 06:33:35;;;;;;;11.30;9.20;;;;;;;0.58;98.86;98759.44;637595;224;24807;-74
2020/12/11 06:36:03;;;;;;;12.47;9.30;;;;;;;0.54;99.57;98751.63;634935;224;24947;-74
2020/12/11 06:38:41;;;;;;;10.80;8.53;;;;;;;0.67;99.54;98747.67;648118;217;24792;-74
2020/12/11 06:41:09;;;;;;;10.93;8.53;;;;;;;0.59;99.87;98745.25;636105;225;24864;-74
2020/12/11 06:43:38;;;;;;;11.67;8.00;;;;;;;0.51;100.00;98745.02;638020;224;24852;-72
2020/12/11 06:46:14;;;;;;;8.80;7.70;;;;;;;0.57;100.00;98742.47;650170;220;24774;-72
2020/12/11 06:48:52;;;;;;;10.13;8.40;;;;;;;0.63;100.00;98747.56;637589;225;24835;-72
2020/12/11 06:51:20;;;;;;;12.40;8.67;;;;;;;0.71;100.00;98748.61;637081;223;24834;-74
2020/12/11 06:53:48;;;;;;;9.00;7.40;;;;;;;0.64;100.00;98737.67;639761;224;26051;-75
2020/12/11 06:56:35;;;;;;;12.53;10.20;;;;;;;1.09;100.00;98739.18;628413;225;32724;-75
2020/12/11 06:59:13;;;;;;;9.70;8.70;;;;;;;0.97;99.90;98729.91;636123;225;23918;-72
2020/12/11 07:01:41;;;;;;;10.90;8.10;;;;;;;0.92;99.80;98730.75;650872;218;24994;-72
2020/12/11 07:04:09;;;;;;;13.45;10.78;;;;;;;1.24;99.11;98733.77;643249;221;32583;-72
2020/12/11 07:06:37;;;;;;;11.60;9.17;;;;;;;1.09;99.12;98727.66;639312;222;23690;-73
2020/12/11 07:09:05;;;;;;;10.37;8.80;;;;;;;1.03;99.20;98720.95;648637;221;24771;-72
2020/12/11 07:11:33;;;;;;;12.50;9.17;;;;;;;1.02;99.53;98725.27;636917;225;24812;-71
2020/12/11 07:14:01;;;;;;;13.20;8.80;;;;;;;0.97;99.66;98730.38;643927;221;24843;-70
2020/12/11 07:16:29;;;;;;;11.50;8.30;;;;;;;0.96;99.84;98735.16;644380;221;24825;-72
2020/12/11 07:18:57;;;;;;;12.80;9.10;;;;;;;1.04;99.98;98737.47;648894;221;24858;-74
2020/12/11 07:21:28;;;;;;;11.20;8.40;;;;;;;1.12;99.37;98735.56;638767;222;24901;-74
2020/12/11 07:23:57;;;;;;;11.83;8.53;;;;;;;1.06;99.52;98735.59;646296;221;26016;-74
2020/12/11 07:26:25;;;;;;;11.93;10.63;;;;;;;1.60;98.43;98723.59;636680;222;32723;-73
2020/12/11 07:29:03;;;;;;;11.37;9.53;;;;;;;1.29;98.71;98732.95;642956;221;23706;-73
2020/12/11 07:31:32;;;;;;;12.30;8.97;;;;;;;1.34;98.85;98734.67;644244;217;25084;-73
2020/12/11 07:34:00;;;;;;;13.43;10.60;;;;;;;1.54;97.63;98731.77;640069;221;32854;-72
2020/12/11 07:36:28;;;;;;;13.23;10.70;;;;;;;1.22;98.50;98734.37;647295;221;23953;-72
2020/12/11 07:38:56;;;;;;;13.07;10.47;;;;;;;0.85;100.00;98734.27;643290;221;25857;-71
2020/12/11 07:41:24;;;;;;;17.53;9.43;;;;;;;0.96;100.00;98738.52;643434;219;24849;-70
2020/12/11 07:43:52;;;;;;;13.37;9.17;;;;;;;0.78;100.00;98738.23;645633;221;28267;-74
2020/12/11 07:46:23;;;;;;;13.90;9.83;;;;;;;1.05;100.00;98725.02;647939;221;24773;-74
2020/12/11 07:48:51;;;;;;;15.07;9.90;;;;;;;1.22;100.00;98720.28;636302;224;25068;-74
2020/12/11 07:51:19;;;;;;;13.43;11.08;;;;;;;1.48;99.19;98713.87;642638;220;32663;-74
2020/12/11 07:53:52;;;;;;;13.20;9.47;;;;;;;1.28;99.66;98709.57;636910;224;23708;-74
2020/12/11 07:56:20;;;;;;;16.50;10.50;;;;;;;1.32;99.75;98702.79;638086;225;24830;-73
2020/12/11 07:58:48;;;;;;;15.20;10.57;;;;;;;1.11;99.96;98708.34;637455;225;25121;-74
2020/12/11 08:01:16;;;;;;;14.63;9.90;;;;;;;1.34;99.81;98698.81;645240;221;24822;-74
2020/12/11 08:03:44;;;;;;;15.03;10.50;;;;;;;1.41;99.17;98687.16;651248;220;32264;-74
2020/12/11 08:06:12;;;;;;;16.60;10.53;;;;;;;1.31;99.32;98678.59;645622;221;24768;-73
2020/12/11 08:08:40;;;;;;;16.13;10.43;;;;;;;1.39;99.20;98682.59;636877;224;24818;-74
2020/12/11 08:11:08;;;;;;;14.23;10.63;;;;;;;1.29;99.58;98690.70;635637;226;28004;-74
2020/12/11 08:13:36;;;;;;;13.03;10.50;;;;;;;1.44;100.00;98686.90;634988;225;24864;-74
2020/12/11 08:16:04;;;;;;;17.23;12.43;;;;;;;1.94;97.43;98670.36;630641;225;32791;-74
2020/12/11 08:18:32;;;;;;;15.57;10.53;;;;;;;1.57;97.40;98676.46;636610;225;23707;-74
2020/12/11 08:21:00;;;;;;;16.30;9.80;;;;;;;1.59;97.70;98675.86;636407;225;24864;-74
2020/12/11 08:23:35;;;;;;;13.70;9.10;;;;;;;1.63;97.96;98675.47;636190;224;24826;-74
2020/12/11 08:26:06;;;;;;;17.03;9.60;;;;;;;1.78;97.41;98670.83;648642;220;24821;-74
2020/12/11 08:28:34;;;;;;;11.80;8.80;;;;;;;1.86;97.46;98661.23;636559;225;25001;-74
2020/12/11 08:31:23;;;;;;;13.80;11.53;;;;;;;2.24;95.68;98655.41;632318;224;32764;-73
2020/12/11 08:33:52;;;;;;;13.83;11.13;;;;;;;2.03;95.79;98657.58;636448;225;23707;-74
2020/12/11 08:36:22;;;;;;;13.70;10.47;;;;;;;2.03;95.72;98652.92;634485;225;24831;-73
2020/12/11 08:39:05;;;;;;;20.63;10.60;;;;;;;2.01;95.21;98661.22;637513;224;24856;-74
2020/12/11 08:41:35;;;;;;;15.20;10.77;;;;;;;2.07;95.63;98649.16;643562;222;24764;-72
2020/12/11 08:44:03;;;;;;;13.63;9.47;;;;;;;2.15;94.71;98648.05;643543;221;24776;-71
2020/12/11 08:46:34;;;;;;;16.33;10.13;;;;;;;2.00;94.44;98642.47;635628;222;27994;-74
2020/12/11 08:49:03;;;;;;;15.57;11.47;;;;;;;2.04;95.19;98653.27;650178;221;24780;-73
2020/12/11 08:51:28;;;;;;;18.03;11.30;;;;;;;1.87;96.00;98660.28;648506;221;29032;-74
2020/12/11 08:53:57;;;;;;;18.30;12.10;;;;;;;2.03;96.29;98658.86;636023;226;24849;-72
2020/12/11 08:56:24;;;;;;;17.63;12.50;;;;;;;2.05;96.13;98665.14;647478;221;29068;-73
2020/12/11 08:58:52;;;;;;;20.20;12.50;;;;;;;2.15;96.28;98672.41;638484;224;24826;-74
2020/12/11 09:01:20;;;;;;;18.90;11.17;;;;;;;2.43;95.47;98655.47;635747;225;27055;-74
2020/12/11 09:03:48;;;;;;;12.33;9.93;;;;;;;2.53;94.77;98650.33;650658;221;24776;-74
2020/12/11 09:06:16;;;;;;;18.53;13.13;;;;;;;2.52;94.16;98649.52;633613;225;32226;-74
2020/12/11 09:08:43;;;;;;;16.00;12.20;;;;;;;2.61;94.46;98658.19;650165;220;24773;-74
2020/12/11 09:11:11;;;;;;;21.10;12.73;;;;;;;2.44;93.79;98649.86;637140;225;24829;-71
2020/12/11 09:13:41;;;;;;;19.93;12.37;;;;;;;2.61;93.65;98648.73;638577;223;24837;-72
2020/12/11 09:16:08;;;;;;;17.73;12.33;;;;;;;2.44;93.12;98640.89;636514;224;24824;-72
2020/12/11 09:18:36;;;;;;;15.70;11.83;;;;;;;2.42;92.91;98649.19;636070;224;24968;-72
2020/12/11 09:21:04;;;;;;;20.27;12.57;;;;;;;2.29;93.49;98648.95;633004;225;24887;-72
2020/12/11 09:23:32;;;;;;;17.10;11.83;;;;;;;2.40;93.46;98639.54;648712;221;24782;-71
2020/12/11 09:26:00;;;;;;;14.80;10.93;;;;;;;2.42;93.27;98633.33;637695;224;24829;-72
2020/12/11 09:28:28;;;;;;;17.53;11.40;;;;;;;2.47;93.33;98632.92;648676;217;24793;-72
2020/12/11 09:30:56;;;;;;;15.80;11.93;;;;;;;2.47;92.71;98637.58;630232;225;28063;-72
2020/12/11 09:33:26;;;;;;;17.57;12.50;;;;;;;2.41;91.63;98634.27;634888;225;24869;-72
2020/12/11 09:35:51;;;;;;;16.80;12.20;;;;;;;2.33;91.58;98638.77;636437;225;24869;-72
2020/12/11 09:38:19;;;;;;;17.57;13.10;;;;;;;2.80;91.29;98633.81;631124;225;32868;-72
2020/12/11 09:40:48;;;;;;;16.10;11.40;;;;;;;2.36;93.11;98642.81;637673;224;23681;-72
2020/12/11 09:43:41;;;;;;;16.90;11.37;;;;;;;2.37;93.51;98643.16;644162;221;24784;-72
2020/12/11 09:45:59;;;;;;;17.70;11.60;;;;;;;2.54;93.14;98639.16;635038;225;24844;-73
2020/12/11 09:48:31;;;;;;;17.00;10.40;;;;;;;2.43;93.34;98632.86;636095;225;24843;-74
2020/12/11 09:51:02;;;;;;;13.97;10.57;;;;;;;2.38;93.78;98637.89;635821;225;24834;-74
2020/12/11 09:53:48;;;;;;;15.10;10.80;;;;;;;2.46;94.21;98640.28;636082;225;24840;-73
2020/12/11 09:56:06;;;;;;;17.77;12.33;;;;;;;2.64;93.19;98623.27;636237;225;25903;-72
2020/12/11 09:58:34;;;;;;;14.20;10.50;;;;;;;2.61;93.12;98616.66;635410;225;24833;-74
2020/12/11 10:01:02;;;;;;;17.67;12.10;;;;;;;2.47;93.34;98614.96;637259;224;24809;-74
2020/12/11 10:03:33;;;;;;;16.60;11.60;;;;;;;2.47;93.75;98611.11;636656;224;26989;-74
2020/12/11 10:05:58;;;;;;;16.60;11.83;;;;;;;2.21;94.17;98603.10;636292;225;24842;-72
2020/12/11 10:08:26;;;;;;;19.27;11.70;;;;;;;2.42;94.06;98600.45;641160;222;24811;-72
2020/12/11 10:10:54;;;;;;;17.00;11.67;;;;;;;2.23;94.15;98598.17;646623;221;25968;-72
2020/12/11 10:13:21;;;;;;;17.13;12.23;;;;;;;2.51;93.71;98592.74;645937;221;24817;-72
2020/12/11 10:15:49;;;;;;;17.47;12.30;;;;;;;2.57;93.23;98590.13;641444;222;24808;-72
2020/12/11 10:18:17;;;;;;;20.90;12.80;;;;;;;2.45;93.49;98589.45;649129;220;25160;-71
2020/12/11 10:20:45;;;;;;;16.83;12.53;;;;;;;2.53;93.93;98591.32;641135;220;24809;-72
2020/12/11 10:23:13;;;;;;;16.60;12.67;;;;;;;2.73;94.19;98595.53;646724;220;24807;-72
2020/12/11 10:25:41;;;;;;;19.30;12.70;;;;;;;2.65;94.53;98584.64;638685;220;24797;-73
2020/12/11 10:28:09;;;;;;;18.70;13.20;;;;;;;2.83;93.17;98564.25;640616;221;24835;-73
2020/12/11 10:30:37;;;;;;;17.23;12.13;;;;;;;2.76;94.05;98570.87;642839;221;24874;-71
2020/12/11 10:33:05;;;;;;;19.53;12.53;;;;;;;2.79;93.51;98562.89;644311;221;24824;-72
2020/12/11 10:35:32;;;;;;;17.60;12.73;;;;;;;3.05;92.73;98549.47;644207;221;24851;-73
2020/12/11 10:38:00;;;;;;;18.67;12.37;;;;;;;3.04;91.46;98527.31;643939;222;24820;-72
2020/12/11 10:40:28;;;;;;;17.30;12.10;;;;;;;2.91;91.76;98509.16;643510;221;24838;-72
2020/12/11 10:42:57;;;;;;;18.27;12.67;;;;;;;2.87;91.25;98502.70;644505;218;24817;-72
2020/12/11 10:45:25;;;;;;;18.07;12.67;;;;;;;2.69;92.71;98505.65;644715;221;24822;-73
2020/12/11 10:47:53;;;;;;;21.07;12.90;;;;;;;2.81;93.61;98504.52;643355;221;24849;-72
2020/12/11 10:50:21;;;;;;;20.47;12.70;;;;;;;2.78;94.53;98504.80;642739;221;24812;-73
2020/12/11 10:52:49;;;;;;;19.57;13.53;;;;;;;2.77;95.74;98523.72;642363;222;28005;-72
2020/12/11 10:55:16;;;;;;;23.57;14.20;;;;;;;2.94;94.43;98514.02;643373;221;25083;-71
2020/12/11 10:57:44;;;;;;;19.90;12.90;;;;;;;3.39;94.48;98513.36;643122;221;24806;-71
2020/12/11 11:00:12;;;;;;;22.32;15.35;;;;;;;3.73;92.09;98492.21;634967;224;32729;-73
2020/12/11 11:02:42;;;;;;;25.10;13.57;;;;;;;3.94;91.93;98498.36;648283;220;23751;-73
2020/12/11 11:05:08;;;;;;;19.50;13.43;;;;;;;4.09;90.19;98473.30;642282;221;27009;-73
2020/12/11 11:07:36;;;;;;;19.80;13.00;;;;;;;3.79;89.97;98469.77;640030;224;24822;-73
2020/12/11 11:10:14;;;;;;;17.43;12.50;;;;;;;3.95;90.21;98467.38;636526;225;24824;-73
2020/12/11 11:12:36;;;;;;;16.97;12.83;;;;;;;4.03;88.80;98448.63;635710;224;24832;-72
2020/12/11 11:18:17;;;;;;;17.90;12.03;;;;;;;4.10;88.10;98433.75;636273;225;26969;-73
2020/12/11 11:20:58;;;;;;;17.20;12.00;;;;;;;4.09;86.91;98416.71;639802;221;24833;-73
2020/12/11 11:23:32;;;;;;;17.50;12.37;;;;;;;4.18;87.58;98411.94;640573;222;24850;-73
2020/12/11 11:28:25;;;;;;;20.30;11.80;;;;;;;4.44;87.36;98406.82;646635;219;24824;-73
2020/12/11 11:30:52;;;;;;;18.15;13.83;;;;;;;4.69;85.68;98398.77;641470;220;32740;-73
2020/12/11 11:33:20;;;;;;;16.83;12.27;;;;;;;4.36;86.21;98388.77;645114;221;23969;-72
2020/12/11 11:35:49;;;;;;;17.03;12.77;;;;;;;4.45;86.20;98383.18;642948;222;24817;-73
2020/12/11 11:38:17;;;;;;;17.60;12.30;;;;;;;4.72;86.91;98383.02;639356;221;24847;-72
2020/12/11 11:40:45;;;;;;;17.90;12.30;;;;;;;4.58;85.34;98381.00;641627;221;24821;-73
2020/12/11 11:43:15;;;;;;;18.90;12.63;;;;;;;4.41;85.32;98376.73;644109;222;24823;-73